createdAt,value
2023-04-11T00:02:10.357Z,2.03
2023-04-11T00:04:39.524Z,1.63
2023-04-11T00:07:08.385Z,3.27
2023-04-11T00:09:37.249Z,2.03
2023-04-11T00:12:05.800Z,1.50
2023-04-11T00:14:35.468Z,2.60
2023-04-11T00:17:03.548Z,1.30
2023-04-11T00:19:33.438Z,1.77
2023-04-11T00:22:01.474Z,1.80
2023-04-11T00:24:29.989Z,3.23
2023-04-11T00:26:58.499Z,2.00
2023-04-11T00:29:26.759Z,1.10
2023-04-11T00:31:56.811Z,1.57
2023-04-11T00:34:24.897Z,3.67
2023-04-11T00:36:53.325Z,1.93
2023-04-11T00:39:22.822Z,2.83
2023-04-11T00:41:50.886Z,1.10
2023-04-11T00:44:18.889Z,1.93
2023-04-11T00:46:47.630Z,1.30
2023-04-11T00:49:16.995Z,2.00
2023-04-11T00:51:45.225Z,3.70
2023-04-11T00:54:13.844Z,1.93
2023-04-11T00:56:41.883Z,2.00
2023-04-11T00:59:10.456Z,2.13
2023-04-11T01:01:38.768Z,2.97
2023-04-11T01:04:07.002Z,1.53
2023-04-11T01:06:37.465Z,1.70
2023-04-11T01:09:06.271Z,1.20
2023-04-11T01:11:35.338Z,2.63
2023-04-11T01:14:04.339Z,2.60
2023-04-11T01:16:32.514Z,1.10
2023-04-11T01:19:00.750Z,2.50
2023-04-11T01:21:29.588Z,2.60
2023-04-11T01:24:03.775Z,2.20
2023-04-11T01:26:32.100Z,1.57
2023-04-11T01:29:00.143Z,2.23
2023-04-11T01:31:28.320Z,1.50
2023-04-11T01:33:56.486Z,2.13
2023-04-11T01:36:24.511Z,1.53
2023-04-11T01:38:52.571Z,1.53
2023-04-11T01:41:23.575Z,4.40
2023-04-11T01:43:51.990Z,1.37
2023-04-11T01:46:20.323Z,2.10
2023-04-11T01:48:50.633Z,2.23
2023-04-11T01:51:18.610Z,2.77
2023-04-11T01:53:47.474Z,6.37
2023-04-11T01:56:16.178Z,1.20
2023-04-11T01:58:45.600Z,1.27
2023-04-11T02:01:14.291Z,1.97
2023-04-11T02:03:42.477Z,3.63
2023-04-11T02:06:10.718Z,5.00
2023-04-11T02:08:38.798Z,2.97
2023-04-11T02:11:08.146Z,3.13
2023-04-11T02:13:37.034Z,2.47
2023-04-11T02:16:15.090Z,3.87
2023-04-11T02:18:47.110Z,1.73
2023-04-11T02:21:15.506Z,5.63
2023-04-11T02:23:43.697Z,4.43
2023-04-11T02:26:11.910Z,3.00
2023-04-11T02:28:40.089Z,2.90
2023-04-11T02:31:09.707Z,4.40
2023-04-11T02:33:37.800Z,3.07
2023-04-11T02:36:06.347Z,2.43
2023-04-11T02:38:34.502Z,3.07
2023-04-11T02:41:04.462Z,3.23
2023-04-11T02:43:32.525Z,3.77
2023-04-11T02:46:11.561Z,2.30
2023-04-11T02:48:42.514Z,2.40
2023-04-11T02:51:10.966Z,2.93
2023-04-11T02:53:38.968Z,2.50
2023-04-11T02:56:08.077Z,3.73
2023-04-11T02:58:39.077Z,6.77
2023-04-11T03:01:11.259Z,2.63
2023-04-11T03:03:39.732Z,4.90
2023-04-11T03:06:10.722Z,4.40
2023-04-11T03:08:40.333Z,2.93
2023-04-11T03:11:08.551Z,4.53
2023-04-11T03:13:37.458Z,4.27
2023-04-11T03:16:06.613Z,3.60
2023-04-11T03:18:34.850Z,3.37
2023-04-11T03:21:03.205Z,3.23
2023-04-11T03:23:32.988Z,3.60
2023-04-11T03:26:01.424Z,2.47
2023-04-11T03:28:29.664Z,2.50
2023-04-11T03:30:58.145Z,3.53
2023-04-11T03:33:26.501Z,4.60
2023-04-11T03:35:54.618Z,4.50
2023-04-11T03:38:22.724Z,3.23
2023-04-11T03:40:52.200Z,3.47
2023-04-11T03:43:20.566Z,5.50
2023-04-11T03:45:48.848Z,3.50
2023-04-11T03:48:20.028Z,2.57
2023-04-11T03:50:48.756Z,3.17
2023-04-11T03:53:16.866Z,3.17
2023-04-11T03:55:45.032Z,5.77
2023-04-11T03:58:14.461Z,3.80
2023-04-11T04:00:42.883Z,2.90
2023-04-11T04:03:11.140Z,1.83
2023-04-11T04:05:39.333Z,3.43
2023-04-11T04:08:07.685Z,4.27
2023-04-11T04:10:35.690Z,2.77
2023-04-11T04:13:03.900Z,3.87
2023-04-11T04:15:33.901Z,2.93
2023-04-11T04:18:02.023Z,3.67
2023-04-11T04:20:30.121Z,4.50
2023-04-11T04:22:58.142Z,4.87
2023-04-11T04:25:26.206Z,6.90
2023-04-11T04:27:58.197Z,4.83
2023-04-11T04:30:28.957Z,4.70
2023-04-11T04:33:00.437Z,3.03
2023-04-11T04:35:28.533Z,4.93
2023-04-11T04:37:56.622Z,4.07
2023-04-11T04:40:26.083Z,5.47
2023-04-11T04:42:58.659Z,15.70
2023-04-11T04:45:27.172Z,4.70
2023-04-11T04:47:55.384Z,4.77
2023-04-11T04:50:24.959Z,3.77
2023-04-11T04:52:53.174Z,4.53
2023-04-11T04:55:21.253Z,3.93
2023-04-11T04:57:49.358Z,5.57
2023-04-11T05:00:17.900Z,2.47
2023-04-11T05:02:46.091Z,5.67
2023-04-11T05:05:15.815Z,5.37
2023-04-11T05:07:45.381Z,4.50
2023-04-11T05:10:13.389Z,2.77
2023-04-11T05:12:41.429Z,8.63
2023-04-11T05:15:11.794Z,3.37
2023-04-11T05:17:39.912Z,2.53
2023-04-11T05:20:09.147Z,3.60
2023-04-11T05:22:37.921Z,3.43
2023-04-11T05:25:11.557Z,5.13
2023-04-11T05:27:39.542Z,6.77
2023-04-11T05:30:08.942Z,4.20
2023-04-11T05:32:37.054Z,3.77
2023-04-11T05:35:05.925Z,3.70
2023-04-11T05:37:34.370Z,3.30
2023-04-11T05:40:03.437Z,4.67
2023-04-11T05:42:33.177Z,6.43
2023-04-11T05:45:01.206Z,7.47
2023-04-11T05:47:29.445Z,5.43
2023-04-11T05:50:00.021Z,5.80
2023-04-11T05:52:28.019Z,7.63
2023-04-11T05:54:56.295Z,8.00
2023-04-11T05:57:24.705Z,9.13
2023-04-11T05:59:54.355Z,7.53
2023-04-11T06:02:22.313Z,8.27
2023-04-11T06:04:51.121Z,9.73
2023-04-11T06:07:19.393Z,8.53
2023-04-11T06:09:47.795Z,9.43
2023-04-11T06:12:16.085Z,13.43
2023-04-11T06:14:44.191Z,6.57
2023-04-11T06:17:13.626Z,9.57
2023-04-11T06:19:41.873Z,5.97
2023-04-11T06:22:10.122Z,9.70
2023-04-11T06:24:39.208Z,7.57
2023-04-11T06:27:10.774Z,7.27
2023-04-11T06:29:39.326Z,5.73
2023-04-11T06:32:08.570Z,7.17
2023-04-11T06:34:39.397Z,11.97
2023-04-11T06:37:08.113Z,10.00
2023-04-11T06:39:37.177Z,10.23
2023-04-11T06:42:05.717Z,6.00
2023-04-11T06:44:34.076Z,7.80
2023-04-11T06:47:02.208Z,11.33
2023-04-11T06:49:31.378Z,11.63
2023-04-11T06:52:00.974Z,11.00
2023-04-11T06:54:29.097Z,11.70
2023-04-11T06:56:59.016Z,7.80
2023-04-11T06:59:27.466Z,6.77
2023-04-11T07:01:55.958Z,8.97
2023-04-11T07:04:24.134Z,10.60
2023-04-11T07:06:52.314Z,11.70
2023-04-11T07:09:22.056Z,9.23
2023-04-11T07:11:50.703Z,8.50
2023-04-11T07:14:18.678Z,7.20
2023-04-11T07:16:46.915Z,12.60
2023-04-11T07:19:15.119Z,9.73
2023-04-11T07:21:43.611Z,9.10
2023-04-11T07:24:13.452Z,9.27
2023-04-11T07:26:43.057Z,7.23
2023-04-11T07:29:13.114Z,7.60
2023-04-11T07:31:44.966Z,12.77
2023-04-11T07:34:13.450Z,9.10
2023-04-11T07:36:41.918Z,6.57
2023-04-11T07:39:12.299Z,12.97
2023-04-11T07:41:41.978Z,7.03
2023-04-11T07:44:10.044Z,5.83
2023-04-11T07:46:38.187Z,13.33
2023-04-11T07:49:06.431Z,11.30
2023-04-11T07:51:34.576Z,9.70
2023-04-11T07:54:03.205Z,6.80
2023-04-11T07:56:31.361Z,9.80
2023-04-11T07:59:01.447Z,13.90
2023-04-11T08:01:29.881Z,9.47
2023-04-11T08:03:58.590Z,8.87
2023-04-11T08:06:29.151Z,6.70
2023-04-11T08:08:58.726Z,9.87
2023-04-11T08:11:27.037Z,7.40
2023-04-11T08:13:55.503Z,8.80
2023-04-11T08:16:25.401Z,9.10
2023-04-11T08:18:53.629Z,6.63
2023-04-11T08:21:23.759Z,7.17
2023-04-11T08:23:51.868Z,6.80
2023-04-11T08:26:20.105Z,8.20
2023-04-11T08:28:48.028Z,5.93
2023-04-11T08:31:16.097Z,5.30
2023-04-11T08:33:45.518Z,7.57
2023-04-11T08:36:14.073Z,6.67
2023-04-11T08:38:42.747Z,8.67
2023-04-11T08:41:10.718Z,12.63
2023-04-11T08:43:40.873Z,7.27
2023-04-11T08:46:09.221Z,4.93
2023-04-11T08:48:37.397Z,8.60
2023-04-11T08:51:07.541Z,7.33
2023-04-11T08:53:39.184Z,8.40
2023-04-11T08:56:07.658Z,4.53
2023-04-11T08:58:35.606Z,8.07
2023-04-11T09:01:28.865Z,7.23
2023-04-11T09:03:57.779Z,6.20
2023-04-11T09:06:30.982Z,5.70
2023-04-11T09:08:59.716Z,5.03
2023-04-11T09:11:28.393Z,9.07
2023-04-11T09:14:09.599Z,6.43
2023-04-11T09:16:38.252Z,7.40
2023-04-11T09:19:24.893Z,5.97
2023-04-11T09:21:57.978Z,11.13
2023-04-11T09:24:26.368Z,9.03
2023-04-11T09:27:08.921Z,6.50
2023-04-11T09:29:38.909Z,11.57
2023-04-11T09:32:07.720Z,10.17
2023-04-11T09:34:39.122Z,7.97
2023-04-11T09:37:09.990Z,5.50
2023-04-11T09:39:38.135Z,8.73
2023-04-11T09:42:26.746Z,7.47
2023-04-11T09:44:54.971Z,6.33
2023-04-11T09:47:23.016Z,5.93
2023-04-11T09:49:52.805Z,8.10
2023-04-11T09:52:22.954Z,6.57
2023-04-11T09:54:53.273Z,7.83
2023-04-11T09:57:24.263Z,11.37
2023-04-11T09:59:55.675Z,7.77
2023-04-11T10:02:23.938Z,7.13
2023-04-11T10:04:53.481Z,7.93
2023-04-11T10:07:23.520Z,4.27
2023-04-11T10:09:51.756Z,4.67
2023-04-11T10:12:32.056Z,4.73
2023-04-11T10:15:08.524Z,4.10
2023-04-11T10:17:37.485Z,3.93
2023-04-11T10:20:44.970Z,5.23
2023-04-11T10:23:13.986Z,8.30
2023-04-11T10:25:53.468Z,6.70
2023-04-11T10:28:32.337Z,6.10
2023-04-11T10:31:04.801Z,5.70
2023-04-11T10:33:33.806Z,5.17
2023-04-11T10:36:05.426Z,4.93
2023-04-11T10:38:51.210Z,5.70
2023-04-11T10:42:00.900Z,3.27
2023-04-11T10:44:29.131Z,7.07
2023-04-11T10:46:58.406Z,5.43
2023-04-11T10:49:57.941Z,4.45
2023-04-11T10:52:27.716Z,5.03
2023-04-11T10:55:21.571Z,7.40
2023-04-11T10:58:15.523Z,5.30
2023-04-11T11:01:37.536Z,7.85
2023-04-11T11:04:36.765Z,5.17
2023-04-11T11:07:15.634Z,5.03
2023-04-11T11:10:23.096Z,6.77
2023-04-11T11:13:17.185Z,4.83
2023-04-11T11:15:50.240Z,3.50
2023-04-11T11:18:23.611Z,7.60
2023-04-11T11:21:00.467Z,5.60
2023-04-11T11:24:09.361Z,5.97
2023-04-11T11:26:55.637Z,6.50
2023-04-11T11:29:46.596Z,8.60
2023-04-11T11:32:23.109Z,5.70
2023-04-11T11:34:52.842Z,5.73
2023-04-11T11:37:49.464Z,4.60
2023-04-11T11:40:25.927Z,4.47
2023-04-11T11:42:55.956Z,3.37
2023-04-11T11:45:46.557Z,6.20
2023-04-11T11:48:35.965Z,4.83
2023-04-11T11:51:06.549Z,6.63
2023-04-11T11:54:20.603Z,5.27
2023-04-11T11:57:01.621Z,4.57
2023-04-11T11:59:31.386Z,5.35
2023-04-11T12:02:10.244Z,4.20
2023-04-11T12:04:39.182Z,5.23
2023-04-11T12:07:10.712Z,3.23
2023-04-11T12:09:59.092Z,6.37
2023-04-11T12:12:55.534Z,5.88
2023-04-11T12:15:27.243Z,4.10
2023-04-11T12:17:56.178Z,7.43
2023-04-11T12:20:27.626Z,8.13
2023-04-11T12:22:56.237Z,3.63
2023-04-11T12:25:33.387Z,5.20
2023-04-11T12:28:01.873Z,4.33
2023-04-11T12:30:31.541Z,6.67
2023-04-11T12:32:59.637Z,3.57
2023-04-11T12:35:28.032Z,3.47
2023-04-11T12:37:56.456Z,4.07
2023-04-11T12:40:24.938Z,6.73
2023-04-11T12:42:57.245Z,4.70
2023-04-11T12:45:26.274Z,5.27
2023-04-11T12:47:56.038Z,6.37
2023-04-11T12:50:25.276Z,3.87
2023-04-11T12:52:53.797Z,4.17
2023-04-11T12:55:22.577Z,4.70
2023-04-11T12:57:50.790Z,4.40
2023-04-11T13:00:19.655Z,7.67
2023-04-11T13:02:48.679Z,3.00
2023-04-11T13:05:18.684Z,5.50
2023-04-11T13:07:47.552Z,2.20
2023-04-11T13:10:17.467Z,9.63
2023-04-11T13:12:48.059Z,7.77
2023-04-11T13:15:17.501Z,2.83
2023-04-11T13:17:45.708Z,3.90
2023-04-11T13:20:14.402Z,1.73
2023-04-11T13:22:44.598Z,3.13
2023-04-11T13:25:13.147Z,6.37
2023-04-11T13:27:41.961Z,5.67
2023-04-11T13:30:11.261Z,5.10
2023-04-11T13:32:40.504Z,4.87
2023-04-11T13:35:09.663Z,3.47
2023-04-11T13:37:37.624Z,5.10
2023-04-11T13:40:10.683Z,2.57
2023-04-11T13:42:38.739Z,4.47
2023-04-11T13:45:07.625Z,6.40
2023-04-11T13:47:37.858Z,2.60
2023-04-11T13:50:08.390Z,4.13
2023-04-11T13:52:36.486Z,2.63
2023-04-11T13:55:06.488Z,4.50
2023-04-11T13:57:34.469Z,3.43
2023-04-11T14:00:09.921Z,4.30
2023-04-11T14:02:38.052Z,4.40
2023-04-11T14:05:07.186Z,3.50
2023-04-11T14:07:35.541Z,5.77
2023-04-11T14:10:03.891Z,4.57
2023-04-11T14:12:33.298Z,4.90
2023-04-11T14:15:01.264Z,5.57
2023-04-11T14:17:29.501Z,2.47
2023-04-11T14:19:57.679Z,4.23
2023-04-11T14:22:27.332Z,7.10
2023-04-11T14:24:55.440Z,4.13
2023-04-11T14:27:23.726Z,1.77
2023-04-11T14:29:53.649Z,3.17
2023-04-11T14:32:22.927Z,5.20
2023-04-11T14:34:52.311Z,7.27
2023-04-11T14:37:20.791Z,6.43
2023-04-11T14:39:48.939Z,5.20
2023-04-11T14:42:17.115Z,6.23
2023-04-11T14:44:45.153Z,3.70
2023-04-11T14:47:14.864Z,4.63
2023-04-11T14:49:42.832Z,3.47
2023-04-11T14:52:11.100Z,3.07
2023-04-11T14:54:39.378Z,3.93
2023-04-11T14:57:07.309Z,5.43
2023-04-11T14:59:35.323Z,3.17
2023-04-11T15:02:03.498Z,3.60
2023-04-11T15:04:33.249Z,2.53
2023-04-11T15:07:01.519Z,5.27
2023-04-11T15:09:29.535Z,3.90
2023-04-11T15:11:58.131Z,5.50
2023-04-11T15:14:29.519Z,5.20
2023-04-11T15:16:57.781Z,3.57
2023-04-11T15:19:25.884Z,4.43
2023-04-11T15:21:55.328Z,3.93
2023-04-11T15:24:23.336Z,4.30
2023-04-11T15:26:51.401Z,3.07
2023-04-11T15:29:19.555Z,5.27
2023-04-11T15:31:47.702Z,3.60
2023-04-11T15:34:15.672Z,4.50
2023-04-11T15:36:45.112Z,2.87
2023-04-11T15:39:14.452Z,5.40
2023-04-11T15:41:42.452Z,3.43
2023-04-11T15:44:10.513Z,3.57
2023-04-11T15:46:39.572Z,2.77
2023-04-11T15:49:07.729Z,4.13
2023-04-11T15:51:35.768Z,4.50
2023-04-11T15:54:04.801Z,2.53
2023-04-11T15:56:35.502Z,4.13
2023-04-11T15:59:03.587Z,3.07
2023-04-11T16:01:31.640Z,4.43
2023-04-11T16:04:00.021Z,7.00
2023-04-11T16:06:28.389Z,4.00
2023-04-11T16:08:56.702Z,4.53
2023-04-11T16:11:25.205Z,7.97
2023-04-11T16:13:58.129Z,2.77
2023-04-11T16:16:26.895Z,5.87
2023-04-11T16:18:55.166Z,5.30
2023-04-11T16:21:28.414Z,3.30
2023-04-11T16:23:56.700Z,3.53
2023-04-11T16:26:24.969Z,4.43
2023-04-11T16:28:53.067Z,4.53
2023-04-11T16:31:24.881Z,2.50
2023-04-11T16:33:53.855Z,4.27
2023-04-11T16:36:22.473Z,5.80
2023-04-11T16:38:53.858Z,5.30
2023-04-11T16:41:21.889Z,5.47
2023-04-11T16:43:49.852Z,3.37
2023-04-11T16:46:17.924Z,3.70
2023-04-11T16:48:47.423Z,4.17
2023-04-11T16:51:18.577Z,6.17
2023-04-11T16:53:47.461Z,5.77
2023-04-11T16:56:15.426Z,5.83
2023-04-11T16:58:43.377Z,6.77
2023-04-11T17:01:12.818Z,6.60
2023-04-11T17:03:42.434Z,6.27
2023-04-11T17:06:15.992Z,8.13
2023-04-11T17:08:44.808Z,7.90
2023-04-11T17:11:13.508Z,6.73
2023-04-11T17:13:45.078Z,7.50
2023-04-11T17:16:13.717Z,4.23
2023-04-11T17:18:41.760Z,5.07
2023-04-11T17:21:09.865Z,5.30
2023-04-11T17:23:43.122Z,4.10
2023-04-11T17:26:12.308Z,6.07
2023-04-11T17:28:40.720Z,3.33
2023-04-11T17:31:32.607Z,3.47
2023-04-11T17:34:00.626Z,7.47
2023-04-11T17:36:28.966Z,5.73
2023-04-11T17:38:58.346Z,9.00
2023-04-11T17:41:26.602Z,5.80
2023-04-11T17:43:57.012Z,6.40
2023-04-11T17:46:25.299Z,7.00
2023-04-11T17:48:53.619Z,5.73
2023-04-11T17:51:21.654Z,5.83
2023-04-11T17:53:49.623Z,9.10
2023-04-11T17:56:19.736Z,3.57
2023-04-11T17:58:48.138Z,6.70
2023-04-11T18:01:16.285Z,5.57
2023-04-11T18:03:44.545Z,7.93
2023-04-11T18:06:12.623Z,7.13
2023-04-11T18:11:12.130Z,5.97
2023-04-11T18:13:43.931Z,5.60
2023-04-11T18:16:12.059Z,4.53
2023-04-11T18:18:40.061Z,5.23
2023-04-11T18:21:08.318Z,8.83
2023-04-11T18:23:36.580Z,7.43
2023-04-11T18:26:04.759Z,6.23
2023-04-11T18:28:32.674Z,7.83
2023-04-11T18:31:02.294Z,8.80
2023-04-11T18:33:30.381Z,8.60
2023-04-11T18:35:58.407Z,8.77
2023-04-11T18:38:26.565Z,10.73
2023-04-11T18:40:56.294Z,5.23
2023-04-11T18:43:25.044Z,6.60
2023-04-11T18:45:53.008Z,5.50
2023-04-11T18:48:22.496Z,5.27
2023-04-11T18:50:59.793Z,5.03
2023-04-11T18:53:42.982Z,8.20
2023-04-11T18:56:11.512Z,6.53
2023-04-11T18:59:05.027Z,6.53
2023-04-11T19:01:36.449Z,8.50
2023-04-11T19:04:12.164Z,10.00
2023-04-11T19:06:44.373Z,8.33
2023-04-11T19:09:14.114Z,7.83
2023-04-11T19:11:53.472Z,6.53
2023-04-11T19:14:30.849Z,6.57
2023-04-11T19:17:01.229Z,3.87
2023-04-11T19:19:32.247Z,6.97
2023-04-11T19:22:01.686Z,3.37
2023-04-11T19:24:36.386Z,6.57
2023-04-11T19:27:05.840Z,4.33
2023-04-11T19:29:37.330Z,4.23
2023-04-11T19:32:06.169Z,5.70
2023-04-11T19:34:43.017Z,5.20
2023-04-11T19:37:32.314Z,5.07
2023-04-11T19:40:03.917Z,7.23
2023-04-11T19:42:42.041Z,4.33
2023-04-11T19:45:11.735Z,7.67
2023-04-11T19:47:57.568Z,4.40
2023-04-11T19:50:51.227Z,3.43
2023-04-11T19:53:26.529Z,7.97
2023-04-11T19:55:56.660Z,5.33
2023-04-11T19:58:24.951Z,6.67
2023-04-11T20:00:53.024Z,5.70
2023-04-11T20:03:21.696Z,4.77
2023-04-11T20:05:55.340Z,6.07
2023-04-11T20:08:28.235Z,7.97
2023-04-11T20:10:56.951Z,4.80
2023-04-11T20:13:40.630Z,4.13
2023-04-11T20:16:09.917Z,6.87
2023-04-11T20:18:38.253Z,7.27
2023-04-11T20:21:08.052Z,7.97
2023-04-11T20:23:41.752Z,4.83
2023-04-11T20:26:10.704Z,5.27
2023-04-11T20:28:43.122Z,6.43
2023-04-11T20:31:11.806Z,6.13
2023-04-11T20:33:44.248Z,8.10
2023-04-11T20:36:15.691Z,5.70
2023-04-11T20:38:44.393Z,5.97
2023-04-11T20:41:15.878Z,7.80
2023-04-11T20:43:45.091Z,5.03
2023-04-11T20:46:15.166Z,6.70
2023-04-11T20:48:48.589Z,7.67
2023-04-11T20:51:19.442Z,6.43
2023-04-11T20:53:48.321Z,4.13
2023-04-11T20:56:16.495Z,5.00
2023-04-11T20:58:46.158Z,4.17
2023-04-11T21:01:17.656Z,6.10
2023-04-11T21:03:47.669Z,6.60
2023-04-11T21:06:17.352Z,8.80
2023-04-11T21:08:45.510Z,7.07
2023-04-11T21:11:13.584Z,11.20
2023-04-11T21:13:41.646Z,8.37
2023-04-11T21:16:11.147Z,7.20
2023-04-11T21:18:39.433Z,8.10
2023-04-11T21:21:10.410Z,8.17
2023-04-11T21:23:43.808Z,7.23
2023-04-11T21:26:12.054Z,7.30
2023-04-11T21:28:40.277Z,6.13
2023-04-11T21:31:19.760Z,8.97
2023-04-11T21:33:47.863Z,8.27
2023-04-11T21:36:16.234Z,6.83
2023-04-11T21:38:45.826Z,10.03
2023-04-11T21:41:13.877Z,7.90
2023-04-11T21:43:42.114Z,6.33
2023-04-11T21:46:10.819Z,7.17
2023-04-11T21:48:39.675Z,6.13
2023-04-11T21:51:08.522Z,6.30
2023-04-11T21:53:37.234Z,4.37
2023-04-11T21:56:11.264Z,7.67
2023-04-11T21:58:39.483Z,6.03
2023-04-11T22:01:11.753Z,4.80
2023-04-11T22:03:41.576Z,5.47
2023-04-11T22:06:11.948Z,7.40
2023-04-11T22:08:40.333Z,7.07
2023-04-11T22:11:17.279Z,6.03
2023-04-11T22:14:02.500Z,6.80
2023-04-11T22:16:34.797Z,5.43
2023-04-11T22:19:09.087Z,5.73
2023-04-11T22:24:22.297Z,5.60
2023-04-11T22:26:58.344Z,8.37
2023-04-11T22:29:31.059Z,3.87
2023-04-11T22:32:22.983Z,5.73
2023-04-11T22:34:52.984Z,4.63
2023-04-11T22:37:23.073Z,5.10
2023-04-11T22:39:51.715Z,4.70
2023-04-11T22:42:21.853Z,8.10
2023-04-11T22:44:50.178Z,4.97
2023-04-11T22:47:22.075Z,5.60
2023-04-11T22:49:50.590Z,10.13
2023-04-11T22:52:24.252Z,6.27
2023-04-11T22:55:08.692Z,7.00
2023-04-11T22:57:38.429Z,6.50
2023-04-11T23:00:09.136Z,5.13
2023-04-11T23:02:52.611Z,8.60
2023-04-11T23:05:55.424Z,6.53
2023-04-11T23:08:36.668Z,6.53
2023-04-11T23:11:06.000Z,9.70
2023-04-11T23:13:36.996Z,8.03
2023-04-11T23:16:09.497Z,10.43
2023-04-11T23:18:39.310Z,4.40
2023-04-11T23:21:15.713Z,5.97
2023-04-11T23:23:44.126Z,7.17
2023-04-11T23:26:40.219Z,8.10
2023-04-11T23:29:12.918Z,8.20
2023-04-11T23:31:44.314Z,11.13
2023-04-11T23:34:33.095Z,6.20
2023-04-11T23:37:01.776Z,6.73
2023-04-11T23:39:57.227Z,8.40
2023-04-11T23:42:26.299Z,8.50
2023-04-11T23:45:02.164Z,7.93
2023-04-11T23:50:13.718Z,6.20
2023-04-11T23:53:03.025Z,5.20
2023-04-11T23:55:34.365Z,7.67
2023-04-11T23:58:02.539Z,6.67
